Hauptseite
METAR-TAF:

METAR-TAF

Flughäfen :

Flughafen Verona

Verona, Italien

Breite: 45-23N, Länge: 010-52E, Höhe: 67 m

Beobachtung

Neuester Wetterbericht von vor 31 Minuten, um 21:50 UTC
Wind 4 kt aus unterschiedlichen Richtungen
Temperatur 7°C
Luftfeuchtigkeit 81%
Luftdruck 1008 hPa
Sichtweite 10 km oder mehr
keine Wolken unter 1500 m und keine Kumulonimbus oder Gewitterwolken

METAR: LIPX 092150Z VRB04KT CAVOK 07/04 Q1008

Zeit: 23:21 (22:21 UTC)

Prognose

Neuester Wetterbericht von vor 2 Stunden und 21 Minuten, um 20:00 UTC
Gültige Prognose vom 09 um 21 UTC bis 10 um 06 UTC
Wind 14 kt aus West/Nordwest
Sichtweite: 8000 m
Aufgelockert bewölkt in der Höhe von 8000 ft

TAF: LIPX 092000Z 0921/1006 29014KT 8000 SCT080

Wetterbeobachtungen und Prognosen von mehr als 4000 Flughäfen (METAR und TAF Bericht).

Die verfügbaren Stationen werden durch gelbe und rote Markierungen auf der Karte dargestellt.

Führen Sie die Maus auf sie, um den Namen der Station zu sehen.

Darauf klicken, um die Beobachtung von Wetterbeobachtungen und Prognosen zu sehen.

Um die Karte zu ändern : klicken Sie auf den grünen Tasten mit einem schwarzen Kreuz Zum Vergrößern, auf den grünen Button mit einem Gedankenstrich zu verkleinern, oder auf die grünen Pfeile für benachbarte Karten.


METAR-TAF: